Ingram, Texas
Current Conditions -  °F | °C
As of 11:55 PM on Thursday 30 Oct 2014 (Local Time) from KERV Reporting Station
Clear Clear  
Wind Chill: 69°   Ceiling: Unl
Heat Index: 69°   Visibility: 10mi
Dew Point: 62°   Wind: 6mph
Humidity: 78%   Direction: 80°E
Pressure: 30.15"   Gusts: NA
Location:  30.08°N, 99.24°W
Report Text: KERV 310455Z AUTO 08005KT 10SM CLR 21/17 A3015 RMK AO2 T02050166
Loading
Personal Weather Stations






























Interactive Weather Map
Tropical Storm Tracking
New forecast layout! Learn more

10-Day Weather Forecast

Advertisements
Track Severe Weather on mobile